createdAt,value
2022-12-24T00:01:33.596Z,4.17
2022-12-24T00:04:01.424Z,7.97
2022-12-24T00:06:29.403Z,5.10
2022-12-24T00:08:59.573Z,7.70
2022-12-24T00:11:27.492Z,2.77
2022-12-24T00:13:55.412Z,2.97
2022-12-24T00:16:24.616Z,2.50
2022-12-24T00:18:54.910Z,3.30
2022-12-24T00:21:22.883Z,7.40
2022-12-24T00:23:50.800Z,2.63
2022-12-24T00:26:18.739Z,4.03
2022-12-24T00:29:26.487Z,5.80
2022-12-24T00:32:54.462Z,3.60
2022-12-24T00:35:32.692Z,4.33
2022-12-24T00:38:00.621Z,4.97
2022-12-24T00:40:28.486Z,3.17
2022-12-24T00:42:56.313Z,5.17
2022-12-24T00:45:24.543Z,3.17
2022-12-24T00:47:53.809Z,6.67
2022-12-24T00:50:21.932Z,3.23
2022-12-24T00:52:49.825Z,2.70
2022-12-24T00:55:17.844Z,4.07
2022-12-24T00:57:45.974Z,6.23
2022-12-24T01:00:16.019Z,1.87
2022-12-24T01:02:44.657Z,4.10
2022-12-24T01:05:13.206Z,7.87
2022-12-24T01:07:44.568Z,2.50
2022-12-24T01:10:14.235Z,2.57
2022-12-24T01:12:44.674Z,4.27
2022-12-24T01:15:14.561Z,5.13
2022-12-24T01:17:42.617Z,4.77
2022-12-24T01:20:17.563Z,3.67
2022-12-24T01:22:46.178Z,5.87
2022-12-24T01:25:14.178Z,5.77
2022-12-24T01:27:45.012Z,5.33
2022-12-24T01:30:15.918Z,5.40
2022-12-24T01:32:44.067Z,5.63
2022-12-24T01:35:12.611Z,7.43
2022-12-24T01:37:43.629Z,7.77
2022-12-24T01:40:34.017Z,9.20
2022-12-24T01:43:19.198Z,8.37
2022-12-24T01:45:49.673Z,6.47
2022-12-24T01:48:24.249Z,5.50
2022-12-24T01:50:58.837Z,7.87
2022-12-24T01:53:28.478Z,5.70
2022-12-24T01:55:56.963Z,5.57
2022-12-24T01:58:27.496Z,8.47
2022-12-24T02:00:56.056Z,5.73
2022-12-24T02:03:26.617Z,8.77
2022-12-24T02:05:58.382Z,7.67
2022-12-24T02:08:39.793Z,5.20
2022-12-24T02:11:15.872Z,8.53
2022-12-24T02:13:47.305Z,7.47
2022-12-24T02:16:30.731Z,9.23
2022-12-24T02:19:11.513Z,7.27
2022-12-24T02:21:49.663Z,8.27
2022-12-24T02:25:04.514Z,6.23
2022-12-24T02:27:43.421Z,5.57
2022-12-24T02:30:19.711Z,6.73
2022-12-24T02:33:01.972Z,4.50
2022-12-24T02:35:38.496Z,7.23
2022-12-24T02:38:14.989Z,7.93
2022-12-24T02:40:47.903Z,7.60
2022-12-24T02:43:21.656Z,4.43
2022-12-24T02:45:59.525Z,8.37
2022-12-24T02:48:31.707Z,8.17
2022-12-24T02:51:03.828Z,5.70
2022-12-24T02:53:35.421Z,6.50
2022-12-24T02:56:25.012Z,6.20
2022-12-24T02:59:13.375Z,6.23
2022-12-24T03:01:52.426Z,4.03
2022-12-24T03:04:39.427Z,9.07
2022-12-24T03:07:16.447Z,3.97
2022-12-24T03:10:00.702Z,7.77
2022-12-24T03:12:33.315Z,3.63
2022-12-24T03:15:02.434Z,3.47
2022-12-24T03:17:35.976Z,6.27
2022-12-24T03:20:05.520Z,3.53
2022-12-24T03:22:35.432Z,4.63
2022-12-24T03:25:04.293Z,5.23
2022-12-24T03:27:34.617Z,4.03
2022-12-24T03:30:04.450Z,5.03
2022-12-24T03:32:34.013Z,5.70
2022-12-24T03:35:01.964Z,7.47
2022-12-24T03:37:29.881Z,4.33
2022-12-24T03:39:59.822Z,4.70
2022-12-24T03:42:27.749Z,2.83
2022-12-24T03:44:55.667Z,4.10
2022-12-24T03:47:25.571Z,6.03
2022-12-24T03:49:54.805Z,2.33
2022-12-24T03:52:22.769Z,6.13
2022-12-24T03:54:50.644Z,4.00
2022-12-24T03:57:18.460Z,2.73
2022-12-24T03:59:46.286Z,4.93
2022-12-24T04:02:14.343Z,5.60
2022-12-24T04:04:42.527Z,4.97
2022-12-24T04:07:11.897Z,7.67
2022-12-24T04:09:40.619Z,5.87
2022-12-24T04:12:09.016Z,4.63
2022-12-24T04:14:36.893Z,4.50
2022-12-24T04:17:07.204Z,5.97
2022-12-24T04:19:37.239Z,6.67
2022-12-24T04:22:05.142Z,7.10
2022-12-24T04:24:36.246Z,8.17
2022-12-24T04:27:06.588Z,7.17
2022-12-24T04:29:34.474Z,2.43
2022-12-24T04:32:02.715Z,7.00
2022-12-24T04:34:30.653Z,8.60
2022-12-24T04:36:58.686Z,7.50
2022-12-24T04:39:26.600Z,7.70
2022-12-24T04:41:55.780Z,3.50
2022-12-24T04:44:23.665Z,4.53
2022-12-24T04:46:51.496Z,3.77
2022-12-24T04:49:19.411Z,4.83
2022-12-24T04:51:47.185Z,6.60
2022-12-24T04:54:14.969Z,5.90
2022-12-24T04:56:42.854Z,4.63
2022-12-24T04:59:12.257Z,6.67
2022-12-24T05:01:40.141Z,7.03
2022-12-24T05:04:08.759Z,3.43
2022-12-24T05:06:36.597Z,7.50
2022-12-24T05:09:04.685Z,8.00
2022-12-24T05:11:32.850Z,5.23
2022-12-24T05:14:00.793Z,6.13
2022-12-24T05:16:30.235Z,6.97
2022-12-24T05:18:58.237Z,8.37
2022-12-24T05:21:26.520Z,6.90
2022-12-24T05:24:12.310Z,4.40
2022-12-24T05:26:43.547Z,5.70
2022-12-24T05:29:13.164Z,6.23
2022-12-24T05:31:43.899Z,5.43
2022-12-24T05:34:12.330Z,6.03
2022-12-24T05:36:40.608Z,2.47
2022-12-24T05:39:15.187Z,4.00
2022-12-24T05:41:43.861Z,4.23
2022-12-24T05:44:11.793Z,3.77
2022-12-24T05:46:43.753Z,8.97
2022-12-24T05:49:11.679Z,5.27
2022-12-24T05:51:40.306Z,4.03
2022-12-24T05:54:08.689Z,6.93
2022-12-24T05:56:36.619Z,5.27
2022-12-24T05:59:04.766Z,5.83
2022-12-24T06:01:32.692Z,5.47
2022-12-24T06:04:03.578Z,8.73
2022-12-24T06:06:31.646Z,3.50
2022-12-24T06:08:59.548Z,6.60
2022-12-24T06:11:29.549Z,8.77
2022-12-24T06:13:58.267Z,9.13
2022-12-24T06:16:27.101Z,8.67
2022-12-24T06:18:55.525Z,7.20
2022-12-24T06:21:24.841Z,6.87
2022-12-24T06:23:53.175Z,3.37
2022-12-24T06:26:23.431Z,7.03
2022-12-24T06:28:52.391Z,7.03
2022-12-24T06:31:23.234Z,10.43
2022-12-24T06:33:51.594Z,7.80
2022-12-24T06:36:21.786Z,6.87
2022-12-24T06:38:52.096Z,8.87
2022-12-24T06:41:20.151Z,6.03
2022-12-24T06:43:50.162Z,6.23
2022-12-24T06:46:19.048Z,7.63
2022-12-24T06:48:47.687Z,2.87
2022-12-24T06:51:19.882Z,5.27
2022-12-24T06:53:48.113Z,4.50
2022-12-24T06:56:18.044Z,5.47
2022-12-24T06:58:45.932Z,9.90
2022-12-24T07:01:16.679Z,4.23
2022-12-24T07:03:45.380Z,7.23
2022-12-24T07:06:18.686Z,7.80
2022-12-24T07:08:46.735Z,5.33
2022-12-24T07:11:14.597Z,7.97
2022-12-24T07:13:43.820Z,8.00
2022-12-24T07:16:11.878Z,12.70
2022-12-24T07:18:44.016Z,4.53
2022-12-24T07:21:12.268Z,6.70
2022-12-24T07:24:06.223Z,4.60
2022-12-24T07:26:34.700Z,6.53
2022-12-24T07:29:03.884Z,5.03
2022-12-24T07:31:31.825Z,3.73
2022-12-24T07:33:59.935Z,7.13
2022-12-24T07:36:28.267Z,6.50
2022-12-24T07:38:58.632Z,2.77
2022-12-24T07:41:26.529Z,6.00
2022-12-24T07:43:54.510Z,8.83
2022-12-24T07:46:26.362Z,4.97
2022-12-24T07:48:54.393Z,6.33
2022-12-24T07:51:22.155Z,4.77
2022-12-24T07:53:50.061Z,6.63
2022-12-24T07:56:18.397Z,3.23
2022-12-24T07:58:46.392Z,3.33
2022-12-24T08:01:22.320Z,4.23
2022-12-24T08:03:55.451Z,5.80
2022-12-24T08:06:23.625Z,6.07
2022-12-24T08:08:51.646Z,10.33
2022-12-24T08:11:19.538Z,6.83
2022-12-24T08:13:47.397Z,7.83
2022-12-24T08:16:15.390Z,10.70
2022-12-24T08:18:43.361Z,8.27
2022-12-24T08:21:12.629Z,6.73
2022-12-24T08:23:40.602Z,4.17
2022-12-24T08:26:09.375Z,4.83
2022-12-24T08:28:37.475Z,10.47
2022-12-24T08:31:06.235Z,6.47
2022-12-24T08:33:36.399Z,6.23
2022-12-24T08:36:04.736Z,7.93
2022-12-24T08:38:33.932Z,2.13
2022-12-24T08:41:01.842Z,7.00
2022-12-24T08:43:32.386Z,8.60
2022-12-24T08:46:04.581Z,7.70
2022-12-24T08:48:32.687Z,2.97
2022-12-24T08:51:00.672Z,6.37
2022-12-24T08:53:28.477Z,9.30
2022-12-24T08:56:04.096Z,6.70
2022-12-24T08:58:33.392Z,8.17
2022-12-24T09:01:02.105Z,7.87
2022-12-24T09:03:30.735Z,4.00
2022-12-24T09:05:58.633Z,6.33
2022-12-24T09:08:26.405Z,6.87
2022-12-24T09:10:54.441Z,4.97
2022-12-24T09:13:23.807Z,5.00
2022-12-24T09:15:55.429Z,5.43
2022-12-24T09:18:23.554Z,11.17
2022-12-24T09:20:57.070Z,8.97
2022-12-24T09:23:25.427Z,7.27
2022-12-24T09:25:53.279Z,6.67
2022-12-24T09:28:22.927Z,12.40
2022-12-24T09:30:58.948Z,7.70
2022-12-24T09:33:27.340Z,10.30
2022-12-24T09:35:55.206Z,5.07
2022-12-24T09:38:25.562Z,9.80
2022-12-24T09:40:55.895Z,7.17
2022-12-24T09:43:32.599Z,9.57
2022-12-24T09:46:10.169Z,6.00
2022-12-24T09:48:43.523Z,10.30
2022-12-24T09:51:13.615Z,8.33
2022-12-24T09:53:47.029Z,6.77
2022-12-24T09:56:19.329Z,8.50
2022-12-24T09:58:51.999Z,8.57
2022-12-24T10:01:22.167Z,8.50
2022-12-24T10:03:50.277Z,8.80
2022-12-24T10:06:27.050Z,5.33
2022-12-24T10:09:12.140Z,10.47
2022-12-24T10:11:48.130Z,12.10
2022-12-24T10:14:28.349Z,8.63
2022-12-24T10:17:11.831Z,9.17
2022-12-24T10:19:51.583Z,3.90
2022-12-24T10:22:27.482Z,6.37
2022-12-24T10:25:04.841Z,8.70
2022-12-24T10:27:39.857Z,6.60
2022-12-24T10:30:17.416Z,7.53
2022-12-24T10:32:48.375Z,9.47
2022-12-24T10:35:24.539Z,9.00
2022-12-24T10:37:53.744Z,10.47
2022-12-24T10:40:33.454Z,5.90
2022-12-24T10:43:01.518Z,6.37
2022-12-24T10:45:38.681Z,3.37
2022-12-24T10:48:12.756Z,3.90
2022-12-24T10:50:44.133Z,7.97
2022-12-24T10:53:18.973Z,10.57
2022-12-24T10:55:49.702Z,9.03
2022-12-24T10:58:20.650Z,3.90
2022-12-24T11:00:53.963Z,10.40
2022-12-24T11:03:31.863Z,4.70
2022-12-24T11:06:06.173Z,7.13
2022-12-24T11:08:34.940Z,4.13
2022-12-24T11:11:08.357Z,4.50
2022-12-24T11:13:39.899Z,7.07
2022-12-24T11:16:18.937Z,13.93
2022-12-24T11:18:51.710Z,5.10
2022-12-24T11:21:25.749Z,19.23
2022-12-24T11:23:56.972Z,10.53
2022-12-24T11:26:27.241Z,9.63
2022-12-24T11:29:13.464Z,9.87
2022-12-24T11:31:43.455Z,25.30
2022-12-24T11:34:28.165Z,9.13
2022-12-24T11:37:14.564Z,8.33
2022-12-24T11:39:48.122Z,9.47
2022-12-24T11:42:32.314Z,10.27
2022-12-24T11:45:03.083Z,8.00
2022-12-24T11:47:37.500Z,8.73
2022-12-24T11:50:24.029Z,8.40
2022-12-24T11:52:56.554Z,8.90
2022-12-24T11:55:36.948Z,7.67
2022-12-24T11:58:17.970Z,10.83
2022-12-24T12:00:48.026Z,8.10
2022-12-24T12:03:30.185Z,8.20
2022-12-24T12:06:00.902Z,7.67
2022-12-24T12:08:30.163Z,11.10
2022-12-24T12:11:00.811Z,6.97
2022-12-24T12:13:34.034Z,7.60
2022-12-24T12:16:12.251Z,6.70
2022-12-24T12:18:46.504Z,6.67
2022-12-24T12:21:18.232Z,6.83
2022-12-24T12:23:50.655Z,4.83
2022-12-24T12:26:24.934Z,6.60
2022-12-24T12:28:59.059Z,7.40
2022-12-24T12:31:31.437Z,9.20
2022-12-24T12:34:05.924Z,12.37
2022-12-24T12:36:40.410Z,10.13
2022-12-24T12:39:10.857Z,8.77
2022-12-24T12:41:55.640Z,7.97
2022-12-24T12:44:41.326Z,4.70
2022-12-24T12:47:32.738Z,5.93
2022-12-24T12:50:11.331Z,6.97
2022-12-24T12:53:03.258Z,6.63
2022-12-24T12:55:42.696Z,5.93
2022-12-24T12:58:18.580Z,9.87
2022-12-24T13:00:50.550Z,12.27
2022-12-24T13:03:45.393Z,6.03
2022-12-24T13:06:27.858Z,10.00
2022-12-24T13:09:22.877Z,10.00
2022-12-24T13:12:05.103Z,8.27
2022-12-24T13:14:46.546Z,12.63
2022-12-24T13:17:34.016Z,12.20
2022-12-24T13:20:25.467Z,4.30
2022-12-24T13:23:00.126Z,11.37
2022-12-24T13:25:36.519Z,10.23
2022-12-24T13:28:33.617Z,10.20
2022-12-24T13:31:31.613Z,14.80
2022-12-24T13:34:01.519Z,9.40
2022-12-24T13:37:07.778Z,11.60
2022-12-24T13:40:14.909Z,8.70
2022-12-24T13:43:07.042Z,8.10
2022-12-24T13:45:46.617Z,10.73
2022-12-24T13:48:28.881Z,7.30
2022-12-24T13:50:59.984Z,13.70
2022-12-24T13:53:32.417Z,8.47
2022-12-24T13:56:07.785Z,9.23
2022-12-24T13:58:37.435Z,13.53
2022-12-24T14:01:09.791Z,13.43
2022-12-24T14:03:43.323Z,11.00
2022-12-24T14:06:13.978Z,14.80
2022-12-24T14:08:44.823Z,11.00
2022-12-24T14:11:17.250Z,13.73
2022-12-24T14:14:09.769Z,12.60
2022-12-24T14:16:45.718Z,11.27
2022-12-24T14:19:16.207Z,10.97
2022-12-24T14:21:48.957Z,13.90
2022-12-24T14:24:19.220Z,13.30
2022-12-24T14:26:50.982Z,10.07
2022-12-24T14:29:26.271Z,10.03
2022-12-24T14:31:55.212Z,13.73
2022-12-24T14:34:23.740Z,14.27
2022-12-24T14:36:54.656Z,13.30
2022-12-24T14:39:27.346Z,12.83
2022-12-24T14:42:10.262Z,11.60
2022-12-24T14:44:47.249Z,16.10
2022-12-24T14:47:28.319Z,8.47
2022-12-24T14:50:20.035Z,11.57
2022-12-24T14:53:09.323Z,13.13
2022-12-24T14:55:45.287Z,13.10
2022-12-24T14:58:32.244Z,14.73
2022-12-24T15:01:04.372Z,16.93
2022-12-24T15:03:33.703Z,16.03
2022-12-24T15:06:05.154Z,14.17
2022-12-24T15:08:37.725Z,12.73
2022-12-24T15:11:08.197Z,10.53
2022-12-24T15:13:40.077Z,8.33
2022-12-24T15:16:11.061Z,11.47
2022-12-24T15:18:43.103Z,8.60
2022-12-24T15:21:19.247Z,12.37
2022-12-24T15:23:49.692Z,17.17
2022-12-24T15:26:23.750Z,12.23
2022-12-24T15:29:01.911Z,12.07
2022-12-24T15:31:31.344Z,15.57
2022-12-24T15:34:00.360Z,7.00
2022-12-24T15:36:32.393Z,10.43
2022-12-24T15:39:02.860Z,8.17
2022-12-24T15:41:38.169Z,5.80
2022-12-24T15:44:07.814Z,9.87
2022-12-24T15:46:35.931Z,10.57
2022-12-24T15:49:04.512Z,11.10
2022-12-24T15:51:40.227Z,5.90
2022-12-24T15:54:14.825Z,7.23
2022-12-24T15:56:45.441Z,11.50
2022-12-24T15:59:27.066Z,14.20
2022-12-24T16:01:55.009Z,14.33
2022-12-24T16:04:25.421Z,15.57
2022-12-24T16:06:55.640Z,9.70
2022-12-24T16:09:43.989Z,12.03
2022-12-24T16:12:18.463Z,10.30
2022-12-24T16:14:54.558Z,7.43
2022-12-24T16:17:25.263Z,8.67
2022-12-24T16:19:56.855Z,14.00
2022-12-24T16:22:35.391Z,10.53
2022-12-24T16:25:22.974Z,11.53
2022-12-24T16:27:51.048Z,10.03
2022-12-24T16:30:20.914Z,7.13
2022-12-24T16:32:50.982Z,7.97
2022-12-24T16:35:28.200Z,6.03
2022-12-24T16:37:56.662Z,10.67
2022-12-24T16:40:27.613Z,8.00
2022-12-24T16:43:14.385Z,9.70
2022-12-24T16:45:45.420Z,7.20
2022-12-24T16:48:20.652Z,8.13
2022-12-24T16:50:49.430Z,11.03
2022-12-24T16:53:18.141Z,9.77
2022-12-24T16:55:47.527Z,8.80
2022-12-24T16:58:17.756Z,8.77
2022-12-24T17:00:47.573Z,9.83
2022-12-24T17:03:15.772Z,15.17
2022-12-24T17:05:46.421Z,12.10
2022-12-24T17:08:15.049Z,13.10
2022-12-24T17:10:51.741Z,10.93
2022-12-24T17:13:22.018Z,10.07
2022-12-24T17:15:51.426Z,7.00
2022-12-24T17:18:19.659Z,9.33
2022-12-24T17:20:57.850Z,12.23
2022-12-24T17:23:25.896Z,11.30
2022-12-24T17:25:53.870Z,10.60
2022-12-24T17:28:23.016Z,10.13
2022-12-24T17:30:52.445Z,11.37
2022-12-24T17:33:20.262Z,7.97
2022-12-24T17:35:49.239Z,11.93
2022-12-24T17:38:17.110Z,10.13
2022-12-24T17:40:45.284Z,10.20
2022-12-24T17:43:13.220Z,13.83
2022-12-24T17:45:42.448Z,10.73
2022-12-24T17:48:11.707Z,11.20
2022-12-24T17:50:40.630Z,9.10
2022-12-24T17:53:09.013Z,7.93
2022-12-24T17:55:41.496Z,13.23
2022-12-24T17:58:09.631Z,8.97
2022-12-24T18:00:38.428Z,13.17
2022-12-24T18:03:06.379Z,12.53
2022-12-24T18:05:36.637Z,12.73
2022-12-24T18:08:05.062Z,12.10
2022-12-24T18:10:33.301Z,9.93
2022-12-24T18:13:01.281Z,14.10
2022-12-24T18:15:34.867Z,11.33
2022-12-24T18:18:03.532Z,11.97
2022-12-24T18:20:32.110Z,22.03
2022-12-24T18:23:01.397Z,21.00
2022-12-24T18:25:29.638Z,12.43
2022-12-24T18:27:57.579Z,15.93
2022-12-24T18:30:27.855Z,21.33
2022-12-24T18:32:56.195Z,16.63
2022-12-24T18:35:24.891Z,10.53
2022-12-24T18:37:53.452Z,13.93
2022-12-24T18:40:22.966Z,12.27
2022-12-24T18:42:50.871Z,10.33
2022-12-24T18:45:18.798Z,10.57
2022-12-24T18:47:46.634Z,13.67
2022-12-24T18:50:14.533Z,10.77
2022-12-24T18:52:42.361Z,15.17
2022-12-24T18:55:11.190Z,11.43
2022-12-24T18:57:40.398Z,16.17
2022-12-24T19:00:09.775Z,14.40
2022-12-24T19:02:37.772Z,13.40
2022-12-24T19:05:06.333Z,11.50
2022-12-24T19:07:34.325Z,13.20
2022-12-24T19:10:02.390Z,12.30
2022-12-24T19:12:30.274Z,15.43
2022-12-24T19:14:59.616Z,13.20
2022-12-24T19:17:27.537Z,15.50
2022-12-24T19:19:55.459Z,17.87
2022-12-24T19:22:23.308Z,13.60
2022-12-24T19:24:51.946Z,12.47
2022-12-24T19:27:19.739Z,11.30
2022-12-24T19:29:47.668Z,12.90
2022-12-24T19:32:17.009Z,14.33
2022-12-24T19:34:44.857Z,8.73
2022-12-24T19:37:12.785Z,11.93
2022-12-24T19:39:40.703Z,10.03
2022-12-24T19:42:08.611Z,8.13
2022-12-24T19:44:36.474Z,10.83
2022-12-24T19:47:04.342Z,7.47
2022-12-24T19:49:33.517Z,11.20
2022-12-24T19:52:01.616Z,10.20
2022-12-24T19:54:31.710Z,7.87
2022-12-24T19:56:59.621Z,6.40
2022-12-24T19:59:27.524Z,4.93
2022-12-24T20:01:56.194Z,6.67
2022-12-24T20:04:24.221Z,9.87
2022-12-24T20:06:59.658Z,4.53
2022-12-24T20:09:28.954Z,12.70
2022-12-24T20:11:59.213Z,13.87
2022-12-24T20:14:29.433Z,10.23
2022-12-24T20:16:57.495Z,8.07
2022-12-24T20:19:25.395Z,10.87
2022-12-24T20:21:56.664Z,8.43
2022-12-24T20:24:27.720Z,9.20
2022-12-24T20:26:55.595Z,9.23
2022-12-24T20:29:25.949Z,8.37
2022-12-24T20:31:53.855Z,13.60
2022-12-24T20:34:21.790Z,8.43
2022-12-24T20:36:49.724Z,7.63
2022-12-24T20:39:18.917Z,7.90
2022-12-24T20:41:46.798Z,9.07
2022-12-24T20:44:14.705Z,6.63
2022-12-24T20:46:42.700Z,5.87
2022-12-24T20:49:12.323Z,6.10
2022-12-24T20:51:40.622Z,4.43
2022-12-24T20:54:08.686Z,5.33
2022-12-24T20:56:37.934Z,3.30
2022-12-24T20:59:05.762Z,5.73
2022-12-24T21:01:34.395Z,3.57
2022-12-24T21:04:04.840Z,6.53
2022-12-24T21:06:33.637Z,5.30
2022-12-24T21:09:01.966Z,5.37
2022-12-24T21:11:47.175Z,4.43
2022-12-24T21:14:18.178Z,3.10
2022-12-24T21:16:46.787Z,6.60
2022-12-24T21:19:18.047Z,3.10
2022-12-24T21:21:46.957Z,4.60
2022-12-24T21:24:15.276Z,3.90
2022-12-24T21:26:43.293Z,4.40
2022-12-24T21:29:11.547Z,2.93
2022-12-24T21:31:40.799Z,6.00
2022-12-24T21:34:09.347Z,4.07
2022-12-24T21:36:37.208Z,2.87
2022-12-24T21:39:06.004Z,2.70
2022-12-24T21:41:33.803Z,4.03
2022-12-24T21:44:02.675Z,4.10
2022-12-24T21:46:30.737Z,4.20
2022-12-24T21:49:17.397Z,3.93
2022-12-24T21:51:48.703Z,4.17
2022-12-24T21:54:28.589Z,3.17
2022-12-24T21:57:16.581Z,2.10
2022-12-24T21:59:44.700Z,3.60
2022-12-24T22:02:13.992Z,3.27
2022-12-24T22:04:44.180Z,1.77
2022-12-24T22:07:38.357Z,3.70
2022-12-24T22:10:25.112Z,3.50
2022-12-24T22:12:53.504Z,4.23
2022-12-24T22:15:22.414Z,5.87
2022-12-24T22:17:50.291Z,3.87
2022-12-24T22:20:19.862Z,3.30
2022-12-24T22:22:48.766Z,1.83
2022-12-24T22:25:16.976Z,2.57
2022-12-24T22:27:44.933Z,2.60
2022-12-24T22:30:13.668Z,2.67
2022-12-24T22:32:41.607Z,3.13
2022-12-24T22:35:10.010Z,5.87
2022-12-24T22:37:39.333Z,2.83
2022-12-24T22:40:08.415Z,5.47
2022-12-24T22:42:40.968Z,4.10
2022-12-24T22:45:12.601Z,3.17
2022-12-24T22:47:43.584Z,4.40
2022-12-24T22:50:12.562Z,4.10
2022-12-24T22:52:41.927Z,4.60
2022-12-24T22:55:10.828Z,3.03
2022-12-24T22:57:41.270Z,3.03
2022-12-24T23:00:14.122Z,3.80
2022-12-24T23:02:42.238Z,3.83
2022-12-24T23:05:14.324Z,4.20
2022-12-24T23:07:43.673Z,3.87
2022-12-24T23:10:11.773Z,5.50
2022-12-24T23:12:56.231Z,4.67
2022-12-24T23:15:24.295Z,4.80
2022-12-24T23:17:52.137Z,3.70
2022-12-24T23:20:20.054Z,6.37
2022-12-24T23:22:51.418Z,5.13
2022-12-24T23:25:19.386Z,3.60
2022-12-24T23:27:47.358Z,5.43
2022-12-24T23:30:17.778Z,5.57
2022-12-24T23:32:45.724Z,3.90
2022-12-24T23:35:13.618Z,6.13
2022-12-24T23:37:41.489Z,6.40
2022-12-24T23:40:11.982Z,4.63
2022-12-24T23:42:39.847Z,5.00
2022-12-24T23:45:10.973Z,5.23
2022-12-24T23:47:38.899Z,4.07
2022-12-24T23:50:08.313Z,3.60
2022-12-24T23:52:36.320Z,3.63
2022-12-24T23:55:04.581Z,4.50
2022-12-24T23:57:33.825Z,4.23
